sensor_id;sensor_type;location;lat;lon;timestamp;P1;durP1;ratioP1;P2;durP2;ratioP2
76115;SDS011;64847;45.778;12.802;2023-05-01T00:01:15;3.40;;;3.20;;
76115;SDS011;64847;45.778;12.802;2023-05-01T00:03:40;3.67;;;3.47;;
76115;SDS011;64847;45.778;12.802;2023-05-01T00:06:05;3.50;;;3.30;;
76115;SDS011;64847;45.778;12.802;2023-05-01T00:08:31;3.33;;;3.13;;
76115;SDS011;64847;45.778;12.802;2023-05-01T00:11:01;3.60;;;3.33;;
76115;SDS011;64847;45.778;12.802;2023-05-01T00:13:30;3.40;;;3.10;;
76115;SDS011;64847;45.778;12.802;2023-05-01T00:15:56;3.47;;;3.27;;
76115;SDS011;64847;45.778;12.802;2023-05-01T00:18:21;3.40;;;3.20;;
76115;SDS011;64847;45.778;12.802;2023-05-01T00:20:47;3.43;;;3.13;;
76115;SDS011;64847;45.778;12.802;2023-05-01T00:23:13;3.40;;;3.20;;
76115;SDS011;64847;45.778;12.802;2023-05-01T00:25:38;3.60;;;3.40;;
76115;SDS011;64847;45.778;12.802;2023-05-01T00:28:04;2.90;;;2.70;;
76115;SDS011;64847;45.778;12.802;2023-05-01T00:30:33;3.87;;;3.57;;
76115;SDS011;64847;45.778;12.802;2023-05-01T00:32:58;3.17;;;2.97;;
76115;SDS011;64847;45.778;12.802;2023-05-01T00:35:25;3.40;;;3.10;;
76115;SDS011;64847;45.778;12.802;2023-05-01T00:37:51;3.50;;;3.20;;
76115;SDS011;64847;45.778;12.802;2023-05-01T00:40:16;3.53;;;3.30;;
76115;SDS011;64847;45.778;12.802;2023-05-01T00:42:42;3.43;;;3.03;;
76115;SDS011;64847;45.778;12.802;2023-05-01T00:45:07;3.13;;;2.93;;
76115;SDS011;64847;45.778;12.802;2023-05-01T00:47:37;3.33;;;3.10;;
76115;SDS011;64847;45.778;12.802;2023-05-01T00:50:03;3.53;;;3.33;;
76115;SDS011;64847;45.778;12.802;2023-05-01T00:52:29;3.57;;;3.37;;
76115;SDS011;64847;45.778;12.802;2023-05-01T00:54:55;3.27;;;3.07;;
76115;SDS011;64847;45.778;12.802;2023-05-01T00:57:21;3.57;;;3.37;;
76115;SDS011;64847;45.778;12.802;2023-05-01T00:59:47;3.20;;;2.90;;
76115;SDS011;64847;45.778;12.802;2023-05-01T01:02:13;3.37;;;3.17;;
76115;SDS011;64847;45.778;12.802;2023-05-01T01:04:42;3.60;;;3.40;;
76115;SDS011;64847;45.778;12.802;2023-05-01T01:17:37;3.37;;;3.17;;
76115;SDS011;64847;45.778;12.802;2023-05-01T01:23:11;3.43;;;3.23;;
76115;SDS011;64847;45.778;12.802;2023-05-01T01:34:33;3.73;;;3.43;;
76115;SDS011;64847;45.778;12.802;2023-05-01T01:37:16;3.63;;;3.33;;
76115;SDS011;64847;45.778;12.802;2023-05-01T01:39:58;3.73;;;3.50;;
76115;SDS011;64847;45.778;12.802;2023-05-01T01:42:39;3.20;;;3.00;;
76115;SDS011;64847;45.778;12.802;2023-05-01T01:45:08;3.03;;;2.83;;
76115;SDS011;64847;45.778;12.802;2023-05-01T01:47:37;3.07;;;2.87;;
76115;SDS011;64847;45.778;12.802;2023-05-01T01:50:05;3.40;;;3.20;;
76115;SDS011;64847;45.778;12.802;2023-05-01T01:52:32;3.30;;;3.10;;
76115;SDS011;64847;45.778;12.802;2023-05-01T01:55:01;3.43;;;3.10;;
76115;SDS011;64847;45.778;12.802;2023-05-01T01:57:30;3.27;;;3.07;;
76115;SDS011;64847;45.778;12.802;2023-05-01T01:59:56;3.30;;;3.10;;
76115;SDS011;64847;45.778;12.802;2023-05-01T02:02:22;3.83;;;3.53;;
76115;SDS011;64847;45.778;12.802;2023-05-01T02:04:48;3.33;;;3.13;;
76115;SDS011;64847;45.778;12.802;2023-05-01T02:07:13;3.10;;;2.90;;
76115;SDS011;64847;45.778;12.802;2023-05-01T02:09:40;3.40;;;3.10;;
76115;SDS011;64847;45.778;12.802;2023-05-01T02:12:07;3.50;;;3.27;;
76115;SDS011;64847;45.778;12.802;2023-05-01T02:14:32;3.13;;;2.93;;
76115;SDS011;64847;45.778;12.802;2023-05-01T02:16:58;2.93;;;2.83;;
76115;SDS011;64847;45.778;12.802;2023-05-01T02:19:24;3.33;;;3.13;;
76115;SDS011;64847;45.778;12.802;2023-05-01T02:21:50;2.93;;;2.83;;
76115;SDS011;64847;45.778;12.802;2023-05-01T02:24:16;3.13;;;2.87;;
76115;SDS011;64847;45.778;12.802;2023-05-01T02:26:43;2.83;;;2.73;;
76115;SDS011;64847;45.778;12.802;2023-05-01T02:29:19;3.47;;;3.20;;
76115;SDS011;64847;45.778;12.802;2023-05-01T02:31:44;3.03;;;2.83;;
76115;SDS011;64847;45.778;12.802;2023-05-01T02:34:10;3.37;;;3.07;;
76115;SDS011;64847;45.778;12.802;2023-05-01T02:36:36;2.87;;;2.67;;
76115;SDS011;64847;45.778;12.802;2023-05-01T02:39:02;2.90;;;2.70;;
76115;SDS011;64847;45.778;12.802;2023-05-01T02:41:27;2.97;;;2.77;;
76115;SDS011;64847;45.778;12.802;2023-05-01T02:43:55;3.13;;;2.87;;
76115;SDS011;64847;45.778;12.802;2023-05-01T02:46:24;3.20;;;3.00;;
76115;SDS011;64847;45.778;12.802;2023-05-01T02:48:51;3.13;;;2.80;;
76115;SDS011;64847;45.778;12.802;2023-05-01T02:51:17;3.33;;;3.03;;
76115;SDS011;64847;45.778;12.802;2023-05-01T02:53:43;3.33;;;3.13;;
76115;SDS011;64847;45.778;12.802;2023-05-01T02:56:10;3.27;;;3.00;;
76115;SDS011;64847;45.778;12.802;2023-05-01T02:58:36;2.80;;;2.70;;
76115;SDS011;64847;45.778;12.802;2023-05-01T03:01:02;3.00;;;2.80;;
76115;SDS011;64847;45.778;12.802;2023-05-01T03:03:27;3.03;;;2.83;;
76115;SDS011;64847;45.778;12.802;2023-05-01T03:05:53;3.23;;;3.03;;
76115;SDS011;64847;45.778;12.802;2023-05-01T03:08:18;3.00;;;2.80;;
76115;SDS011;64847;45.778;12.802;2023-05-01T03:10:44;3.17;;;2.97;;
76115;SDS011;64847;45.778;12.802;2023-05-01T03:13:10;3.10;;;2.90;;
76115;SDS011;64847;45.778;12.802;2023-05-01T03:15:35;3.40;;;3.10;;
76115;SDS011;64847;45.778;12.802;2023-05-01T03:18:02;3.03;;;2.83;;
76115;SDS011;64847;45.778;12.802;2023-05-01T03:20:28;3.13;;;2.93;;
76115;SDS011;64847;45.778;12.802;2023-05-01T03:22:53;3.43;;;3.13;;
76115;SDS011;64847;45.778;12.802;2023-05-01T03:25:19;3.53;;;3.33;;
76115;SDS011;64847;45.778;12.802;2023-05-01T03:27:45;4.93;;;3.03;;
76115;SDS011;64847;45.778;12.802;2023-05-01T03:30:10;3.33;;;3.13;;
76115;SDS011;64847;45.778;12.802;2023-05-01T03:32:36;3.53;;;3.33;;
76115;SDS011;64847;45.778;12.802;2023-05-01T03:35:02;3.17;;;2.97;;
76115;SDS011;64847;45.778;12.802;2023-05-01T03:37:28;3.43;;;3.23;;
76115;SDS011;64847;45.778;12.802;2023-05-01T03:39:53;3.53;;;3.33;;
76115;SDS011;64847;45.778;12.802;2023-05-01T03:42:19;3.03;;;2.83;;
76115;SDS011;64847;45.778;12.802;2023-05-01T03:44:44;3.60;;;3.30;;
76115;SDS011;64847;45.778;12.802;2023-05-01T03:47:10;3.10;;;3.00;;
76115;SDS011;64847;45.778;12.802;2023-05-01T03:49:35;3.40;;;3.10;;
76115;SDS011;64847;45.778;12.802;2023-05-01T03:52:00;3.40;;;3.10;;
76115;SDS011;64847;45.778;12.802;2023-05-01T03:54:26;3.53;;;3.33;;
76115;SDS011;64847;45.778;12.802;2023-05-01T03:56:51;3.17;;;2.97;;
76115;SDS011;64847;45.778;12.802;2023-05-01T03:59:17;3.90;;;3.60;;
76115;SDS011;64847;45.778;12.802;2023-05-01T04:01:43;3.30;;;3.00;;
76115;SDS011;64847;45.778;12.802;2023-05-01T04:04:08;3.60;;;3.40;;
76115;SDS011;64847;45.778;12.802;2023-05-01T04:06:34;3.27;;;3.07;;
76115;SDS011;64847;45.778;12.802;2023-05-01T04:09:01;3.60;;;3.30;;
76115;SDS011;64847;45.778;12.802;2023-05-01T04:11:26;3.67;;;3.47;;
76115;SDS011;64847;45.778;12.802;2023-05-01T04:13:52;3.33;;;3.13;;
76115;SDS011;64847;45.778;12.802;2023-05-01T04:16:17;3.60;;;3.30;;
76115;SDS011;64847;45.778;12.802;2023-05-01T04:18:42;3.43;;;3.23;;
76115;SDS011;64847;45.778;12.802;2023-05-01T04:21:08;3.23;;;2.93;;
76115;SDS011;64847;45.778;12.802;2023-05-01T04:23:33;3.07;;;2.87;;
76115;SDS011;64847;45.778;12.802;2023-05-01T04:25:58;3.17;;;2.97;;
76115;SDS011;64847;45.778;12.802;2023-05-01T04:28:24;3.37;;;3.17;;
76115;SDS011;64847;45.778;12.802;2023-05-01T04:30:50;3.63;;;3.33;;
76115;SDS011;64847;45.778;12.802;2023-05-01T04:33:16;3.10;;;2.90;;
76115;SDS011;64847;45.778;12.802;2023-05-01T04:35:41;3.67;;;3.47;;
76115;SDS011;64847;45.778;12.802;2023-05-01T04:38:07;4.43;;;3.60;;
76115;SDS011;64847;45.778;12.802;2023-05-01T04:40:32;3.47;;;3.17;;
76115;SDS011;64847;45.778;12.802;2023-05-01T04:42:58;2.90;;;2.70;;
76115;SDS011;64847;45.778;12.802;2023-05-01T04:45:24;3.30;;;3.10;;
76115;SDS011;64847;45.778;12.802;2023-05-01T04:47:49;3.40;;;3.20;;
76115;SDS011;64847;45.778;12.802;2023-05-01T04:50:15;3.70;;;3.40;;
76115;SDS011;64847;45.778;12.802;2023-05-01T04:52:40;3.40;;;3.20;;
76115;SDS011;64847;45.778;12.802;2023-05-01T04:55:06;3.20;;;3.00;;
76115;SDS011;64847;45.778;12.802;2023-05-01T04:57:32;3.27;;;3.07;;
76115;SDS011;64847;45.778;12.802;2023-05-01T04:59:57;3.63;;;3.37;;
76115;SDS011;64847;45.778;12.802;2023-05-01T05:02:23;3.67;;;3.37;;
76115;SDS011;64847;45.778;12.802;2023-05-01T05:04:48;3.33;;;3.13;;
76115;SDS011;64847;45.778;12.802;2023-05-01T05:07:14;3.40;;;3.10;;
76115;SDS011;64847;45.778;12.802;2023-05-01T05:09:39;3.37;;;3.17;;
76115;SDS011;64847;45.778;12.802;2023-05-01T05:12:05;3.70;;;3.43;;
76115;SDS011;64847;45.778;12.802;2023-05-01T05:14:30;3.00;;;2.90;;
76115;SDS011;64847;45.778;12.802;2023-05-01T05:16:56;3.27;;;3.03;;
76115;SDS011;64847;45.778;12.802;2023-05-01T05:19:21;3.50;;;3.20;;
76115;SDS011;64847;45.778;12.802;2023-05-01T05:21:46;3.07;;;2.97;;
76115;SDS011;64847;45.778;12.802;2023-05-01T05:24:12;3.20;;;3.00;;
76115;SDS011;64847;45.778;12.802;2023-05-01T05:26:38;3.23;;;2.93;;
76115;SDS011;64847;45.778;12.802;2023-05-01T05:29:03;3.30;;;3.00;;
76115;SDS011;64847;45.778;12.802;2023-05-01T05:31:29;3.37;;;3.13;;
76115;SDS011;64847;45.778;12.802;2023-05-01T05:33:54;3.00;;;2.77;;
76115;SDS011;64847;45.778;12.802;2023-05-01T05:36:19;3.30;;;3.10;;
76115;SDS011;64847;45.778;12.802;2023-05-01T05:38:45;3.07;;;2.87;;
76115;SDS011;64847;45.778;12.802;2023-05-01T05:41:10;2.93;;;2.73;;
76115;SDS011;64847;45.778;12.802;2023-05-01T05:43:36;2.80;;;2.70;;
76115;SDS011;64847;45.778;12.802;2023-05-01T05:46:01;4.43;;;2.90;;
76115;SDS011;64847;45.778;12.802;2023-05-01T05:48:27;3.03;;;2.83;;
76115;SDS011;64847;45.778;12.802;2023-05-01T05:50:52;3.23;;;2.93;;
76115;SDS011;64847;45.778;12.802;2023-05-01T05:53:18;3.07;;;2.87;;
76115;SDS011;64847;45.778;12.802;2023-05-01T05:55:45;3.40;;;3.20;;
76115;SDS011;64847;45.778;12.802;2023-05-01T05:58:11;3.40;;;3.20;;
76115;SDS011;64847;45.778;12.802;2023-05-01T06:00:38;3.10;;;2.90;;
76115;SDS011;64847;45.778;12.802;2023-05-01T06:03:03;3.10;;;2.90;;
76115;SDS011;64847;45.778;12.802;2023-05-01T06:05:29;3.33;;;3.13;;
76115;SDS011;64847;45.778;12.802;2023-05-01T06:07:54;3.77;;;3.23;;
76115;SDS011;64847;45.778;12.802;2023-05-01T06:10:20;3.40;;;3.20;;
76115;SDS011;64847;45.778;12.802;2023-05-01T06:12:45;2.77;;;2.60;;
76115;SDS011;64847;45.778;12.802;2023-05-01T06:15:12;3.10;;;2.90;;
76115;SDS011;64847;45.778;12.802;2023-05-01T06:17:41;2.80;;;2.60;;
76115;SDS011;64847;45.778;12.802;2023-05-01T06:20:07;2.73;;;2.60;;
76115;SDS011;64847;45.778;12.802;2023-05-01T06:22:33;2.80;;;2.67;;
76115;SDS011;64847;45.778;12.802;2023-05-01T06:24:58;2.43;;;2.33;;
76115;SDS011;64847;45.778;12.802;2023-05-01T06:27:24;2.70;;;2.50;;
76115;SDS011;64847;45.778;12.802;2023-05-01T06:29:50;2.37;;;2.27;;
76115;SDS011;64847;45.778;12.802;2023-05-01T06:32:15;3.37;;;2.63;;
76115;SDS011;64847;45.778;12.802;2023-05-01T06:34:41;2.33;;;2.23;;
76115;SDS011;64847;45.778;12.802;2023-05-01T06:37:06;2.40;;;2.30;;
76115;SDS011;64847;45.778;12.802;2023-05-01T06:39:32;2.88;;;2.67;;
76115;SDS011;64847;45.778;12.802;2023-05-01T06:41:57;2.20;;;2.10;;
76115;SDS011;64847;45.778;12.802;2023-05-01T06:44:23;2.20;;;2.10;;
76115;SDS011;64847;45.778;12.802;2023-05-01T06:46:48;2.33;;;2.15;;
76115;SDS011;64847;45.778;12.802;2023-05-01T06:49:13;2.17;;;2.08;;
76115;SDS011;64847;45.778;12.802;2023-05-01T06:51:39;2.00;;;1.90;;
76115;SDS011;64847;45.778;12.802;2023-05-01T06:54:05;2.00;;;1.90;;
76115;SDS011;64847;45.778;12.802;2023-05-01T06:56:31;1.90;;;1.80;;
76115;SDS011;64847;45.778;12.802;2023-05-01T06:58:57;2.05;;;1.95;;
76115;SDS011;64847;45.778;12.802;2023-05-01T07:01:22;2.08;;;1.98;;
76115;SDS011;64847;45.778;12.802;2023-05-01T07:03:48;1.90;;;1.80;;
76115;SDS011;64847;45.778;12.802;2023-05-01T07:06:13;2.00;;;1.90;;
76115;SDS011;64847;45.778;12.802;2023-05-01T07:08:39;1.65;;;1.65;;
76115;SDS011;64847;45.778;12.802;2023-05-01T07:11:04;2.00;;;1.90;;
76115;SDS011;64847;45.778;12.802;2023-05-01T07:13:29;2.00;;;1.90;;
76115;SDS011;64847;45.778;12.802;2023-05-01T07:15:55;2.10;;;2.00;;
76115;SDS011;64847;45.778;12.802;2023-05-01T07:18:20;1.90;;;1.80;;
76115;SDS011;64847;45.778;12.802;2023-05-01T07:20:46;2.00;;;1.90;;
76115;SDS011;64847;45.778;12.802;2023-05-01T07:23:13;2.00;;;1.90;;
76115;SDS011;64847;45.778;12.802;2023-05-01T07:25:39;1.70;;;1.70;;
76115;SDS011;64847;45.778;12.802;2023-05-01T07:28:09;1.77;;;1.67;;
76115;SDS011;64847;45.778;12.802;2023-05-01T07:30:34;2.20;;;2.00;;
76115;SDS011;64847;45.778;12.802;2023-05-01T07:33:00;1.85;;;1.80;;
76115;SDS011;64847;45.778;12.802;2023-05-01T07:35:26;1.60;;;1.60;;
76115;SDS011;64847;45.778;12.802;2023-05-01T07:37:51;1.85;;;1.75;;
76115;SDS011;64847;45.778;12.802;2023-05-01T07:40:17;2.28;;;2.10;;
76115;SDS011;64847;45.778;12.802;2023-05-01T07:42:42;1.90;;;1.80;;
76115;SDS011;64847;45.778;12.802;2023-05-01T07:45:08;1.58;;;1.58;;
76115;SDS011;64847;45.778;12.802;2023-05-01T07:47:34;1.70;;;1.63;;
76115;SDS011;64847;45.778;12.802;2023-05-01T07:49:59;1.95;;;1.85;;
76115;SDS011;64847;45.778;12.802;2023-05-01T07:52:27;1.80;;;1.70;;
76115;SDS011;64847;45.778;12.802;2023-05-01T07:54:53;1.85;;;1.80;;
76115;SDS011;64847;45.778;12.802;2023-05-01T07:57:18;2.45;;;1.90;;
76115;SDS011;64847;45.778;12.802;2023-05-01T07:59:44;1.70;;;1.60;;
76115;SDS011;64847;45.778;12.802;2023-05-01T08:02:09;1.92;;;1.83;;
76115;SDS011;64847;45.778;12.802;2023-05-01T08:04:35;2.17;;;2.08;;
76115;SDS011;64847;45.778;12.802;2023-05-01T08:07:00;1.83;;;1.73;;
76115;SDS011;64847;45.778;12.802;2023-05-01T08:09:26;1.80;;;1.80;;
76115;SDS011;64847;45.778;12.802;2023-05-01T08:11:51;1.90;;;1.80;;
76115;SDS011;64847;45.778;12.802;2023-05-01T08:14:17;1.80;;;1.70;;
76115;SDS011;64847;45.778;12.802;2023-05-01T08:16:43;1.80;;;1.70;;
76115;SDS011;64847;45.778;12.802;2023-05-01T08:19:08;1.60;;;1.60;;
76115;SDS011;64847;45.778;12.802;2023-05-01T08:21:34;1.55;;;1.55;;
76115;SDS011;64847;45.778;12.802;2023-05-01T08:23:59;1.70;;;1.60;;
76115;SDS011;64847;45.778;12.802;2023-05-01T08:26:25;1.85;;;1.77;;
76115;SDS011;64847;45.778;12.802;2023-05-01T08:28:50;2.20;;;1.70;;
76115;SDS011;64847;45.778;12.802;2023-05-01T08:31:16;1.95;;;1.85;;
76115;SDS011;64847;45.778;12.802;2023-05-01T08:33:43;1.88;;;1.77;;
76115;SDS011;64847;45.778;12.802;2023-05-01T08:36:08;2.95;;;2.00;;
76115;SDS011;64847;45.778;12.802;2023-05-01T08:38:37;1.50;;;1.50;;
76115;SDS011;64847;45.778;12.802;2023-05-01T08:41:03;1.80;;;1.80;;
76115;SDS011;64847;45.778;12.802;2023-05-01T08:43:31;1.70;;;1.60;;
76115;SDS011;64847;45.778;12.802;2023-05-01T08:46:00;2.53;;;1.60;;
76115;SDS011;64847;45.778;12.802;2023-05-01T08:48:26;1.50;;;1.50;;
76115;SDS011;64847;45.778;12.802;2023-05-01T08:50:54;1.30;;;1.30;;
76115;SDS011;64847;45.778;12.802;2023-05-01T08:53:24;1.70;;;1.52;;
76115;SDS011;64847;45.778;12.802;2023-05-01T08:55:50;1.70;;;1.60;;
76115;SDS011;64847;45.778;12.802;2023-05-01T08:58:17;1.73;;;1.63;;
76115;SDS011;64847;45.778;12.802;2023-05-01T09:00:43;1.70;;;1.60;;
76115;SDS011;64847;45.778;12.802;2023-05-01T09:03:10;1.80;;;1.70;;
76115;SDS011;64847;45.778;12.802;2023-05-01T09:05:36;1.77;;;1.70;;
76115;SDS011;64847;45.778;12.802;2023-05-01T09:08:02;1.80;;;1.80;;
76115;SDS011;64847;45.778;12.802;2023-05-01T09:10:27;2.00;;;1.90;;
76115;SDS011;64847;45.778;12.802;2023-05-01T09:12:59;1.70;;;1.70;;
76115;SDS011;64847;45.778;12.802;2023-05-01T09:15:25;1.90;;;1.80;;
76115;SDS011;64847;45.778;12.802;2023-05-01T09:17:51;1.88;;;1.67;;
76115;SDS011;64847;45.778;12.802;2023-05-01T09:20:18;1.73;;;1.63;;
76115;SDS011;64847;45.778;12.802;2023-05-01T09:22:43;1.40;;;1.40;;
76115;SDS011;64847;45.778;12.802;2023-05-01T09:25:09;1.88;;;1.77;;
76115;SDS011;64847;45.778;12.802;2023-05-01T09:27:35;1.60;;;1.60;;
76115;SDS011;64847;45.778;12.802;2023-05-01T09:30:01;1.90;;;1.80;;
76115;SDS011;64847;45.778;12.802;2023-05-01T09:32:28;1.92;;;1.83;;
76115;SDS011;64847;45.778;12.802;2023-05-01T09:34:54;1.83;;;1.73;;
76115;SDS011;64847;45.778;12.802;2023-05-01T09:40:11;1.70;;;1.60;;
76115;SDS011;64847;45.778;12.802;2023-05-01T09:42:39;1.95;;;1.77;;
76115;SDS011;64847;45.778;12.802;2023-05-01T09:45:14;1.77;;;1.67;;
76115;SDS011;64847;45.778;12.802;2023-05-01T09:47:49;1.60;;;1.60;;
76115;SDS011;64847;45.778;12.802;2023-05-01T09:50:27;1.80;;;1.70;;
76115;SDS011;64847;45.778;12.802;2023-05-01T09:52:54;2.00;;;1.90;;
76115;SDS011;64847;45.778;12.802;2023-05-01T09:55:19;1.77;;;1.67;;
76115;SDS011;64847;45.778;12.802;2023-05-01T09:57:45;1.65;;;1.63;;
76115;SDS011;64847;45.778;12.802;2023-05-01T10:00:12;1.95;;;1.85;;
76115;SDS011;64847;45.778;12.802;2023-05-01T10:02:39;1.95;;;1.70;;
76115;SDS011;64847;45.778;12.802;2023-05-01T10:05:06;1.73;;;1.70;;
76115;SDS011;64847;45.778;12.802;2023-05-01T10:07:33;1.77;;;1.75;;
76115;SDS011;64847;45.778;12.802;2023-05-01T10:10:13;1.58;;;1.50;;
76115;SDS011;64847;45.778;12.802;2023-05-01T10:12:40;2.55;;;1.80;;
76115;SDS011;64847;45.778;12.802;2023-05-01T10:15:05;1.60;;;1.60;;
76115;SDS011;64847;45.778;12.802;2023-05-01T10:17:31;1.50;;;1.50;;
76115;SDS011;64847;45.778;12.802;2023-05-01T10:19:58;1.88;;;1.50;;
76115;SDS011;64847;45.778;12.802;2023-05-01T10:22:23;1.77;;;1.67;;
76115;SDS011;64847;45.778;12.802;2023-05-01T10:24:48;1.50;;;1.50;;
76115;SDS011;64847;45.778;12.802;2023-05-01T10:27:14;1.80;;;1.70;;
76115;SDS011;64847;45.778;12.802;2023-05-01T10:29:41;1.85;;;1.75;;
76115;SDS011;64847;45.778;12.802;2023-05-01T10:32:07;1.55;;;1.55;;
76115;SDS011;64847;45.778;12.802;2023-05-01T10:34:34;1.60;;;1.50;;
76115;SDS011;64847;45.778;12.802;2023-05-01T10:37:03;2.42;;;1.80;;
76115;SDS011;64847;45.778;12.802;2023-05-01T10:39:31;1.50;;;1.50;;
76115;SDS011;64847;45.778;12.802;2023-05-01T10:44:24;1.80;;;1.70;;
76115;SDS011;64847;45.778;12.802;2023-05-01T10:46:51;1.55;;;1.55;;
76115;SDS011;64847;45.778;12.802;2023-05-01T10:49:16;1.55;;;1.55;;
76115;SDS011;64847;45.778;12.802;2023-05-01T10:56:50;1.88;;;1.77;;
76115;SDS011;64847;45.778;12.802;2023-05-01T10:59:16;1.50;;;1.50;;
76115;SDS011;64847;45.778;12.802;2023-05-01T11:01:46;1.60;;;1.60;;
76115;SDS011;64847;45.778;12.802;2023-05-01T11:12:10;1.67;;;1.60;;
76115;SDS011;64847;45.778;12.802;2023-05-01T11:20:03;1.58;;;1.58;;
76115;SDS011;64847;45.778;12.802;2023-05-01T11:22:30;1.58;;;1.58;;
76115;SDS011;64847;45.778;12.802;2023-05-01T11:24:56;1.70;;;1.60;;
76115;SDS011;64847;45.778;12.802;2023-05-01T11:27:22;1.45;;;1.45;;
76115;SDS011;64847;45.778;12.802;2023-05-01T11:29:48;1.70;;;1.60;;
76115;SDS011;64847;45.778;12.802;2023-05-01T11:32:15;1.50;;;1.50;;
76115;SDS011;64847;45.778;12.802;2023-05-01T11:34:41;1.40;;;1.40;;
76115;SDS011;64847;45.778;12.802;2023-05-01T11:37:07;1.70;;;1.60;;
76115;SDS011;64847;45.778;12.802;2023-05-01T11:39:32;1.55;;;1.50;;
76115;SDS011;64847;45.778;12.802;2023-05-01T11:42:05;1.60;;;1.60;;
76115;SDS011;64847;45.778;12.802;2023-05-01T11:44:32;1.88;;;1.77;;
76115;SDS011;64847;45.778;12.802;2023-05-01T11:46:58;1.55;;;1.55;;
76115;SDS011;64847;45.778;12.802;2023-05-01T11:49:25;1.70;;;1.70;;
76115;SDS011;64847;45.778;12.802;2023-05-01T11:51:58;1.60;;;1.60;;
76115;SDS011;64847;45.778;12.802;2023-05-01T11:54:24;1.65;;;1.55;;
76115;SDS011;64847;45.778;12.802;2023-05-01T11:56:59;1.85;;;1.65;;
76115;SDS011;64847;45.778;12.802;2023-05-01T11:59:25;1.63;;;1.63;;
76115;SDS011;64847;45.778;12.802;2023-05-01T12:01:51;1.67;;;1.67;;
76115;SDS011;64847;45.778;12.802;2023-05-01T12:04:26;1.67;;;1.58;;
76115;SDS011;64847;45.778;12.802;2023-05-01T12:06:52;1.70;;;1.60;;
76115;SDS011;64847;45.778;12.802;2023-05-01T12:09:18;1.60;;;1.60;;
76115;SDS011;64847;45.778;12.802;2023-05-01T12:11:45;1.55;;;1.50;;
76115;SDS011;64847;45.778;12.802;2023-05-01T12:14:15;1.70;;;1.60;;
76115;SDS011;64847;45.778;12.802;2023-05-01T12:16:41;1.50;;;1.50;;
76115;SDS011;64847;45.778;12.802;2023-05-01T12:19:07;1.40;;;1.40;;
76115;SDS011;64847;45.778;12.802;2023-05-01T12:21:33;1.55;;;1.55;;
76115;SDS011;64847;45.778;12.802;2023-05-01T12:24:10;1.50;;;1.50;;
76115;SDS011;64847;45.778;12.802;2023-05-01T12:26:37;1.65;;;1.60;;
76115;SDS011;64847;45.778;12.802;2023-05-01T12:29:03;1.80;;;1.70;;
76115;SDS011;64847;45.778;12.802;2023-05-01T12:31:29;1.73;;;1.70;;
76115;SDS011;64847;45.778;12.802;2023-05-01T12:34:05;1.77;;;1.67;;
76115;SDS011;64847;45.778;12.802;2023-05-01T12:36:32;1.45;;;1.45;;
76115;SDS011;64847;45.778;12.802;2023-05-01T12:39:02;1.45;;;1.45;;
76115;SDS011;64847;45.778;12.802;2023-05-01T12:43:58;1.50;;;1.50;;
76115;SDS011;64847;45.778;12.802;2023-05-01T12:46:24;1.77;;;1.70;;
76115;SDS011;64847;45.778;12.802;2023-05-01T12:48:50;1.80;;;1.70;;
76115;SDS011;64847;45.778;12.802;2023-05-01T12:51:20;1.67;;;1.55;;
76115;SDS011;64847;45.778;12.802;2023-05-01T12:53:45;1.55;;;1.50;;
76115;SDS011;64847;45.778;12.802;2023-05-01T12:56:21;1.55;;;1.45;;
76115;SDS011;64847;45.778;12.802;2023-05-01T12:58:47;1.60;;;1.50;;
76115;SDS011;64847;45.778;12.802;2023-05-01T13:01:21;1.60;;;1.60;;
76115;SDS011;64847;45.778;12.802;2023-05-01T13:03:51;1.60;;;1.60;;
76115;SDS011;64847;45.778;12.802;2023-05-01T13:06:16;1.88;;;1.77;;
76115;SDS011;64847;45.778;12.802;2023-05-01T13:08:42;2.92;;;1.75;;
76115;SDS011;64847;45.778;12.802;2023-05-01T13:11:11;2.10;;;2.00;;
76115;SDS011;64847;45.778;12.802;2023-05-01T13:13:38;1.70;;;1.70;;
76115;SDS011;64847;45.778;12.802;2023-05-01T13:16:07;2.88;;;1.75;;
76115;SDS011;64847;45.778;12.802;2023-05-01T13:18:51;2.00;;;1.90;;
76115;SDS011;64847;45.778;12.802;2023-05-01T13:21:21;1.83;;;1.50;;
76115;SDS011;64847;45.778;12.802;2023-05-01T13:23:51;1.60;;;1.50;;
76115;SDS011;64847;45.778;12.802;2023-05-01T13:26:16;1.63;;;1.63;;
76115;SDS011;64847;45.778;12.802;2023-05-01T13:28:42;1.60;;;1.55;;
76115;SDS011;64847;45.778;12.802;2023-05-01T13:31:09;1.92;;;1.83;;
76115;SDS011;64847;45.778;12.802;2023-05-01T13:33:37;2.00;;;1.80;;
76115;SDS011;64847;45.778;12.802;2023-05-01T13:36:04;1.85;;;1.70;;
76115;SDS011;64847;45.778;12.802;2023-05-01T13:38:29;1.60;;;1.60;;
76115;SDS011;64847;45.778;12.802;2023-05-01T13:41:00;1.65;;;1.60;;
76115;SDS011;64847;45.778;12.802;2023-05-01T13:43:25;1.50;;;1.50;;
76115;SDS011;64847;45.778;12.802;2023-05-01T13:45:53;3.15;;;1.83;;
76115;SDS011;64847;45.778;12.802;2023-05-01T13:48:21;1.80;;;1.70;;
76115;SDS011;64847;45.778;12.802;2023-05-01T13:50:47;1.50;;;1.50;;
76115;SDS011;64847;45.778;12.802;2023-05-01T13:53:13;1.45;;;1.45;;
76115;SDS011;64847;45.778;12.802;2023-05-01T13:55:38;1.40;;;1.40;;
76115;SDS011;64847;45.778;12.802;2023-05-01T13:58:04;1.40;;;1.40;;
76115;SDS011;64847;45.778;12.802;2023-05-01T14:00:30;1.50;;;1.50;;
76115;SDS011;64847;45.778;12.802;2023-05-01T14:02:55;1.30;;;1.30;;
76115;SDS011;64847;45.778;12.802;2023-05-01T14:05:25;2.05;;;1.95;;
76115;SDS011;64847;45.778;12.802;2023-05-01T14:07:55;1.90;;;1.80;;
76115;SDS011;64847;45.778;12.802;2023-05-01T14:10:22;1.90;;;1.80;;
76115;SDS011;64847;45.778;12.802;2023-05-01T14:12:50;1.70;;;1.60;;
76115;SDS011;64847;45.778;12.802;2023-05-01T14:15:19;2.10;;;2.00;;
76115;SDS011;64847;45.778;12.802;2023-05-01T14:17:44;2.55;;;2.15;;
76115;SDS011;64847;45.778;12.802;2023-05-01T14:20:10;1.48;;;1.40;;
76115;SDS011;64847;45.778;12.802;2023-05-01T14:22:47;1.75;;;1.70;;
76115;SDS011;64847;45.778;12.802;2023-05-01T14:25:31;1.80;;;1.70;;
76115;SDS011;64847;45.778;12.802;2023-05-01T14:27:59;1.83;;;1.73;;
76115;SDS011;64847;45.778;12.802;2023-05-01T14:32:57;1.73;;;1.63;;
76115;SDS011;64847;45.778;12.802;2023-05-01T14:35:23;1.65;;;1.60;;
76115;SDS011;64847;45.778;12.802;2023-05-01T14:37:49;1.63;;;1.63;;
76115;SDS011;64847;45.778;12.802;2023-05-01T14:40:16;1.52;;;1.52;;
76115;SDS011;64847;45.778;12.802;2023-05-01T14:42:42;1.38;;;1.38;;
76115;SDS011;64847;45.778;12.802;2023-05-01T14:45:14;1.85;;;1.75;;
76115;SDS011;64847;45.778;12.802;2023-05-01T14:47:43;1.83;;;1.73;;
76115;SDS011;64847;45.778;12.802;2023-05-01T14:50:11;1.40;;;1.40;;
76115;SDS011;64847;45.778;12.802;2023-05-01T14:52:39;1.40;;;1.40;;
76115;SDS011;64847;45.778;12.802;2023-05-01T14:55:04;1.63;;;1.52;;
76115;SDS011;64847;45.778;12.802;2023-05-01T14:57:30;1.55;;;1.55;;
76115;SDS011;64847;45.778;12.802;2023-05-01T14:59:56;1.60;;;1.60;;
76115;SDS011;64847;45.778;12.802;2023-05-01T15:02:21;1.63;;;1.58;;
76115;SDS011;64847;45.778;12.802;2023-05-01T15:04:47;1.52;;;1.52;;
76115;SDS011;64847;45.778;12.802;2023-05-01T15:07:12;1.77;;;1.75;;
76115;SDS011;64847;45.778;12.802;2023-05-01T15:09:40;1.58;;;1.50;;
76115;SDS011;64847;45.778;12.802;2023-05-01T15:12:06;1.40;;;1.40;;
76115;SDS011;64847;45.778;12.802;2023-05-01T15:14:33;1.58;;;1.50;;
76115;SDS011;64847;45.778;12.802;2023-05-01T15:16:59;1.60;;;1.50;;
76115;SDS011;64847;45.778;12.802;2023-05-01T15:19:24;1.65;;;1.55;;
76115;SDS011;64847;45.778;12.802;2023-05-01T15:21:50;1.48;;;1.40;;